AFL380 OPKC-ZULS
Flight info
| Callsign | AFL380 |
|---|---|
| Flight time | 2h 54m |
| Altitude | 37000 |
| Route | PUNAM3A PUNAM R462 RAMSA Z15 JDP W58 JJP J20 LKN G598 SMR G336 KTM B345 NONIM/K0898S1130 B345 IKUBI IKU10A |
| Aircraft | B77W/H-SDE1E2E3FGHIJ2J3J4J5M1RWXY/LB1D1 |
Departure
| Time | 2026-05-08 01:48 |
|---|---|
| Airport | Jinnah International Airport (OPKC) |
Arrival
| Time | 2026-05-08 04:42 |
|---|---|
| Airport | Lhasa Gonggar International Airport (ZULS) |
| Time | Latitude | Longitude | Altitude | Speed | Heading |
|---|---|---|---|---|---|
| 2026-05-08 01:24 | 24.90328 | 67.16902 | 106 ft | 0 kts | 164° |
| 2026-05-08 01:38 | 24.90334 | 67.16900 | 106 ft | 2 kts | 162° |
| 2026-05-08 01:39 | 24.90353 | 67.16892 | 106 ft | 3 kts | 152° |
| 2026-05-08 01:39 | 24.90370 | 67.16881 | 105 ft | 3 kts | 139° |
| 2026-05-08 01:39 | 24.90384 | 67.16865 | 104 ft | 3 kts | 122° |
| 2026-05-08 01:39 | 24.90392 | 67.16846 | 104 ft | 3 kts | 102° |
| 2026-05-08 01:40 | 24.90394 | 67.16825 | 104 ft | 3 kts | 80° |
| 2026-05-08 01:40 | 24.90393 | 67.16816 | 104 ft | 0 kts | 75° |
| 2026-05-08 01:42 | 24.90393 | 67.16817 | 104 ft | 0 kts | 75° |
| 2026-05-08 01:42 | 24.90393 | 67.16818 | 104 ft | 0 kts | 75° |
| 2026-05-08 01:42 | 24.90393 | 67.16819 | 104 ft | 2 kts | 75° |
| 2026-05-08 01:42 | 24.90407 | 67.16871 | 105 ft | 10 kts | 73° |
| 2026-05-08 01:43 | 24.90426 | 67.16942 | 108 ft | 10 kts | 73° |
| 2026-05-08 01:43 | 24.90449 | 67.17013 | 108 ft | 10 kts | 48° |
| 2026-05-08 01:43 | 24.90515 | 67.17032 | 108 ft | 10 kts | 2° |
| 2026-05-08 01:43 | 24.90567 | 67.17068 | 107 ft | 9 kts | 67° |
| 2026-05-08 01:44 | 24.90585 | 67.17134 | 107 ft | 9 kts | 77° |
| 2026-05-08 01:44 | 24.90604 | 67.17199 | 106 ft | 9 kts | 60° |
| 2026-05-08 01:44 | 24.90625 | 67.17271 | 107 ft | 12 kts | 73° |
| 2026-05-08 01:44 | 24.90648 | 67.17362 | 107 ft | 13 kts | 77° |
| 2026-05-08 01:45 | 24.90670 | 67.17455 | 107 ft | 13 kts | 67° |
| 2026-05-08 01:45 | 24.90725 | 67.17528 | 107 ft | 13 kts | 46° |
| 2026-05-08 01:45 | 24.90786 | 67.17597 | 107 ft | 13 kts | 46° |
| 2026-05-08 01:45 | 24.90847 | 67.17663 | 107 ft | 13 kts | 43° |
| 2026-05-08 01:46 | 24.90909 | 67.17730 | 109 ft | 13 kts | 43° |
| 2026-05-08 01:46 | 24.90973 | 67.17796 | 108 ft | 13 kts | 43° |
| 2026-05-08 01:46 | 24.91041 | 67.17855 | 107 ft | 13 kts | 20° |
| 2026-05-08 01:46 | 24.91126 | 67.17843 | 107 ft | 13 kts | 341° |
| 2026-05-08 01:47 | 24.91199 | 67.17793 | 109 ft | 13 kts | 311° |
| 2026-05-08 01:47 | 24.91215 | 67.17703 | 109 ft | 13 kts | 260° |
| 2026-05-08 01:47 | 24.91212 | 67.17690 | 109 ft | 0 kts | 256° |
| 2026-05-08 01:48 | 24.91037 | 67.16988 | 110 ft | 121 kts | 254° |
| 2026-05-08 01:48 | 24.90744 | 67.15858 | 154 ft | 176 kts | 253° |
| 2026-05-08 01:48 | 24.90411 | 67.14563 | 775 ft | 180 kts | 255° |
| 2026-05-08 01:48 | 24.90082 | 67.13231 | 1477 ft | 180 kts | 245° |
| 2026-05-08 01:49 | 24.89204 | 67.12251 | 1987 ft | 191 kts | 201° |
| 2026-05-08 01:49 | 24.87821 | 67.12161 | 2311 ft | 210 kts | 169° |
| 2026-05-08 01:49 | 24.86351 | 67.12627 | 2576 ft | 233 kts | 160° |
| 2026-05-08 01:49 | 24.84972 | 67.13725 | 2820 ft | 259 kts | 126° |
| 2026-05-08 01:50 | 24.84296 | 67.15603 | 2983 ft | 278 kts | 95° |
| 2026-05-08 01:50 | 24.84685 | 67.17643 | 3155 ft | 275 kts | 55° |
| 2026-05-08 01:50 | 24.86093 | 67.19029 | 3822 ft | 274 kts | 24° |
| 2026-05-08 01:50 | 24.87466 | 67.19773 | 4348 ft | 276 kts | 28° |
| 2026-05-08 01:51 | 24.89113 | 67.20910 | 5039 ft | 280 kts | 32° |
| 2026-05-08 01:51 | 24.90750 | 67.22079 | 5888 ft | 280 kts | 31° |
| 2026-05-08 01:51 | 24.92342 | 67.23280 | 6710 ft | 278 kts | 42° |
| 2026-05-08 01:51 | 24.93471 | 67.25031 | 7326 ft | 287 kts | 66° |
| 2026-05-08 01:52 | 24.94036 | 67.27108 | 8013 ft | 290 kts | 74° |
| 2026-05-08 01:52 | 24.94516 | 67.29272 | 8796 ft | 292 kts | 75° |
| 2026-05-08 01:52 | 24.94988 | 67.31449 | 9609 ft | 293 kts | 75° |
| 2026-05-08 01:52 | 24.95467 | 67.33652 | 10270 ft | 302 kts | 75° |
| 2026-05-08 01:53 | 24.95979 | 67.35984 | 10636 ft | 325 kts | 75° |
| 2026-05-08 01:53 | 24.96533 | 67.38490 | 10806 ft | 350 kts | 75° |
| 2026-05-08 01:53 | 24.97132 | 67.41183 | 11048 ft | 372 kts | 75° |
| 2026-05-08 01:53 | 24.97756 | 67.43992 | 11676 ft | 382 kts | 75° |
| 2026-05-08 01:54 | 24.98385 | 67.46817 | 12560 ft | 386 kts | 75° |
| 2026-05-08 01:54 | 24.99026 | 67.49693 | 13515 ft | 388 kts | 75° |
| 2026-05-08 01:54 | 24.99673 | 67.52597 | 14273 ft | 394 kts | 75° |
| 2026-05-08 01:54 | 25.00331 | 67.55547 | 15004 ft | 399 kts | 75° |
| 2026-05-08 01:55 | 25.00997 | 67.58536 | 15782 ft | 404 kts | 75° |
| 2026-05-08 01:55 | 25.01672 | 67.61565 | 16514 ft | 410 kts | 75° |
| 2026-05-08 01:55 | 25.02379 | 67.64625 | 17235 ft | 415 kts | 74° |
| 2026-05-08 01:55 | 25.03127 | 67.67722 | 17945 ft | 421 kts | 73° |
| 2026-05-08 01:56 | 25.03883 | 67.70815 | 18570 ft | 425 kts | 73° |
| 2026-05-08 01:56 | 25.04656 | 67.73976 | 19216 ft | 429 kts | 73° |
| 2026-05-08 01:56 | 25.05434 | 67.77168 | 19860 ft | 433 kts | 73° |
| 2026-05-08 01:56 | 25.06216 | 67.80392 | 20493 ft | 437 kts | 73° |
| 2026-05-08 01:57 | 25.07003 | 67.83649 | 21097 ft | 442 kts | 72° |
| 2026-05-08 01:57 | 25.07795 | 67.86939 | 21721 ft | 446 kts | 72° |
| 2026-05-08 01:57 | 25.08594 | 67.90261 | 22323 ft | 450 kts | 72° |
| 2026-05-08 01:57 | 25.09399 | 67.93615 | 22911 ft | 454 kts | 72° |
| 2026-05-08 01:58 | 25.10199 | 67.96955 | 23451 ft | 459 kts | 72° |
| 2026-05-08 01:58 | 25.11018 | 68.00374 | 23885 ft | 464 kts | 72° |
| 2026-05-08 01:58 | 25.11845 | 68.03832 | 24304 ft | 469 kts | 72° |
| 2026-05-08 01:58 | 25.12680 | 68.07326 | 24722 ft | 473 kts | 72° |
| 2026-05-08 01:59 | 25.13522 | 68.10854 | 25142 ft | 478 kts | 72° |
| 2026-05-08 01:59 | 25.14371 | 68.14417 | 25558 ft | 482 kts | 72° |
| 2026-05-08 01:59 | 25.15227 | 68.18012 | 25965 ft | 487 kts | 72° |
| 2026-05-08 01:59 | 25.16089 | 68.21641 | 26348 ft | 491 kts | 71° |
| 2026-05-08 02:00 | 25.16949 | 68.25258 | 26730 ft | 496 kts | 71° |
| 2026-05-08 02:00 | 25.17826 | 68.28955 | 27125 ft | 501 kts | 71° |
| 2026-05-08 02:00 | 25.18710 | 68.32686 | 27534 ft | 504 kts | 71° |
| 2026-05-08 02:00 | 25.19600 | 68.36447 | 27882 ft | 509 kts | 71° |
| 2026-05-08 02:01 | 25.20498 | 68.40245 | 28230 ft | 513 kts | 71° |
| 2026-05-08 02:01 | 25.21400 | 68.44069 | 28573 ft | 517 kts | 71° |
| 2026-05-08 02:01 | 25.22307 | 68.47920 | 28894 ft | 521 kts | 71° |
| 2026-05-08 02:01 | 25.23222 | 68.51807 | 29201 ft | 524 kts | 71° |
| 2026-05-08 02:02 | 25.24142 | 68.55717 | 29472 ft | 529 kts | 71° |
| 2026-05-08 02:02 | 25.25056 | 68.59614 | 29754 ft | 532 kts | 71° |
| 2026-05-08 02:02 | 25.25980 | 68.63572 | 30116 ft | 532 kts | 71° |
| 2026-05-08 02:02 | 25.26899 | 68.67532 | 30540 ft | 531 kts | 71° |
| 2026-05-08 02:03 | 25.27815 | 68.71483 | 30978 ft | 530 kts | 71° |
| 2026-05-08 02:03 | 25.28727 | 68.75422 | 31418 ft | 529 kts | 70° |
| 2026-05-08 02:03 | 25.29638 | 68.79358 | 31821 ft | 528 kts | 70° |
| 2026-05-08 02:03 | 25.30548 | 68.83287 | 32233 ft | 528 kts | 70° |
| 2026-05-08 02:04 | 25.31443 | 68.87160 | 32646 ft | 527 kts | 70° |
| 2026-05-08 02:04 | 25.32352 | 68.91092 | 32990 ft | 528 kts | 70° |
| 2026-05-08 02:04 | 25.33259 | 68.95023 | 33369 ft | 528 kts | 69° |
| 2026-05-08 02:04 | 25.34164 | 68.98954 | 33791 ft | 527 kts | 69° |
| 2026-05-08 02:05 | 25.35047 | 69.02797 | 34127 ft | 526 kts | 69° |
| 2026-05-08 02:05 | 25.35949 | 69.06721 | 34437 ft | 527 kts | 70° |
| 2026-05-08 02:05 | 25.36849 | 69.10644 | 34734 ft | 527 kts | 70° |
| 2026-05-08 02:05 | 25.37751 | 69.14569 | 35037 ft | 527 kts | 70° |
| 2026-05-08 02:06 | 25.38655 | 69.18497 | 35336 ft | 527 kts | 70° |
| 2026-05-08 02:06 | 25.39547 | 69.22374 | 35594 ft | 529 kts | 70° |
| 2026-05-08 02:06 | 25.40455 | 69.26322 | 35830 ft | 530 kts | 70° |
| 2026-05-08 02:06 | 25.41361 | 69.30272 | 36125 ft | 530 kts | 70° |
| 2026-05-08 02:07 | 25.42263 | 69.34214 | 36436 ft | 529 kts | 71° |
| 2026-05-08 02:07 | 25.43165 | 69.38160 | 36686 ft | 530 kts | 71° |
| 2026-05-08 02:07 | 25.44982 | 69.46120 | 36778 ft | 535 kts | 71° |
| 2026-05-08 02:08 | 25.46776 | 69.54017 | 36776 ft | 529 kts | 71° |
| 2026-05-08 02:08 | 25.48566 | 69.61909 | 36780 ft | 529 kts | 71° |
| 2026-05-08 02:09 | 25.50356 | 69.69811 | 36783 ft | 530 kts | 71° |
| 2026-05-08 02:09 | 25.51250 | 69.77909 | 36767 ft | 531 kts | 87° |
| 2026-05-08 02:10 | 25.50485 | 69.85975 | 36769 ft | 522 kts | 99° |
| 2026-05-08 02:10 | 25.48923 | 69.93846 | 36805 ft | 534 kts | 101° |
| 2026-05-08 02:11 | 25.47313 | 70.01878 | 36804 ft | 546 kts | 100° |
| 2026-05-08 02:11 | 25.45715 | 70.10146 | 36787 ft | 550 kts | 100° |
| 2026-05-08 02:12 | 25.44142 | 70.18405 | 36784 ft | 548 kts | 100° |
| 2026-05-08 02:12 | 25.42580 | 70.26588 | 36785 ft | 547 kts | 100° |
| 2026-05-08 02:13 | 25.41002 | 70.34803 | 36789 ft | 545 kts | 100° |
| 2026-05-08 02:13 | 25.39420 | 70.43001 | 36797 ft | 544 kts | 100° |
| 2026-05-08 02:14 | 25.37838 | 70.51181 | 36800 ft | 544 kts | 100° |
| 2026-05-08 02:14 | 25.36262 | 70.59305 | 36806 ft | 544 kts | 101° |
| 2026-05-08 02:15 | 25.34668 | 70.67497 | 36799 ft | 545 kts | 101° |
| 2026-05-08 02:15 | 25.33062 | 70.75689 | 36804 ft | 546 kts | 101° |
| 2026-05-08 02:16 | 25.31241 | 70.83842 | 36805 ft | 547 kts | 103° |
| 2026-05-08 02:16 | 25.29339 | 70.91929 | 36810 ft | 548 kts | 103° |
| 2026-05-08 02:17 | 25.27460 | 71.00058 | 36803 ft | 547 kts | 103° |
| 2026-05-08 02:17 | 25.25613 | 71.08148 | 36800 ft | 547 kts | 103° |
| 2026-05-08 02:18 | 25.23748 | 71.16292 | 36798 ft | 547 kts | 103° |
| 2026-05-08 02:18 | 25.21891 | 71.24372 | 36798 ft | 547 kts | 103° |
| 2026-05-08 02:19 | 25.21163 | 71.28469 | 36781 ft | 541 kts | 91° |
| 2026-05-08 02:19 | 25.21331 | 71.32570 | 36806 ft | 532 kts | 75° |
| 2026-05-08 02:19 | 25.22283 | 71.36490 | 36802 ft | 526 kts | 63° |
| 2026-05-08 02:19 | 25.23957 | 71.40037 | 36788 ft | 515 kts | 49° |
| 2026-05-08 02:20 | 25.28127 | 71.46513 | 36806 ft | 522 kts | 48° |
| 2026-05-08 02:20 | 25.32271 | 71.53071 | 36794 ft | 523 kts | 49° |
| 2026-05-08 02:21 | 25.36331 | 71.59663 | 36784 ft | 516 kts | 50° |
| 2026-05-08 02:21 | 25.40349 | 71.66230 | 36810 ft | 515 kts | 49° |
| 2026-05-08 02:22 | 25.44371 | 71.72798 | 36802 ft | 516 kts | 49° |
| 2026-05-08 02:22 | 25.48369 | 71.79328 | 36795 ft | 517 kts | 49° |
| 2026-05-08 02:23 | 25.52399 | 71.85920 | 36796 ft | 517 kts | 49° |
| 2026-05-08 02:23 | 25.56429 | 71.92524 | 36813 ft | 518 kts | 49° |
| 2026-05-08 02:24 | 25.60463 | 71.99144 | 36807 ft | 519 kts | 50° |
| 2026-05-08 02:24 | 25.64461 | 72.05715 | 36802 ft | 519 kts | 50° |
| 2026-05-08 02:25 | 25.68468 | 72.12308 | 36805 ft | 519 kts | 49° |
| 2026-05-08 02:25 | 25.72542 | 72.18920 | 36805 ft | 519 kts | 49° |
| 2026-05-08 02:26 | 25.76639 | 72.25505 | 36825 ft | 519 kts | 49° |
| 2026-05-08 02:26 | 25.80729 | 72.32098 | 36809 ft | 518 kts | 49° |
| 2026-05-08 02:27 | 25.84776 | 72.38649 | 36804 ft | 518 kts | 49° |
| 2026-05-08 02:27 | 25.88839 | 72.45240 | 36811 ft | 517 kts | 49° |
| 2026-05-08 02:28 | 25.92891 | 72.51822 | 36810 ft | 516 kts | 49° |
| 2026-05-08 02:28 | 25.96938 | 72.58402 | 36812 ft | 515 kts | 49° |
| 2026-05-08 02:29 | 26.00948 | 72.64932 | 36820 ft | 515 kts | 49° |
| 2026-05-08 02:29 | 26.04986 | 72.71515 | 36820 ft | 515 kts | 49° |
| 2026-05-08 02:30 | 26.09020 | 72.78105 | 36812 ft | 515 kts | 49° |
| 2026-05-08 02:30 | 26.12371 | 72.83585 | 36818 ft | 516 kts | 49° |
| 2026-05-08 02:31 | 26.16407 | 72.90194 | 36810 ft | 516 kts | 49° |
| 2026-05-08 02:31 | 26.21091 | 72.97875 | 36816 ft | 516 kts | 49° |
| 2026-05-08 02:32 | 26.24553 | 73.04863 | 36817 ft | 527 kts | 61° |
| 2026-05-08 02:32 | 26.26521 | 73.11339 | 36823 ft | 536 kts | 71° |
| 2026-05-08 02:33 | 26.28095 | 73.19470 | 36820 ft | 538 kts | 73° |
| 2026-05-08 02:33 | 26.29591 | 73.27636 | 36818 ft | 537 kts | 73° |
| 2026-05-08 02:34 | 26.31132 | 73.35785 | 36826 ft | 537 kts | 72° |
| 2026-05-08 02:34 | 26.32697 | 73.43865 | 36820 ft | 537 kts | 72° |
| 2026-05-08 02:35 | 26.34273 | 73.51990 | 36825 ft | 536 kts | 72° |
| 2026-05-08 02:35 | 26.35842 | 73.60118 | 36826 ft | 536 kts | 72° |
| 2026-05-08 02:36 | 26.37401 | 73.68245 | 36844 ft | 536 kts | 72° |
| 2026-05-08 02:36 | 26.38946 | 73.76325 | 36834 ft | 536 kts | 72° |
| 2026-05-08 02:37 | 26.40497 | 73.84462 | 36831 ft | 536 kts | 73° |
| 2026-05-08 02:37 | 26.42044 | 73.92600 | 36833 ft | 536 kts | 73° |
| 2026-05-08 02:38 | 26.43570 | 74.00658 | 36855 ft | 536 kts | 73° |
| 2026-05-08 02:38 | 26.45097 | 74.08746 | 36840 ft | 537 kts | 73° |
| 2026-05-08 02:39 | 26.46631 | 74.16897 | 36835 ft | 537 kts | 73° |
| 2026-05-08 02:39 | 26.48161 | 74.25052 | 36841 ft | 537 kts | 73° |
| 2026-05-08 02:40 | 26.49686 | 74.33209 | 36841 ft | 537 kts | 73° |
| 2026-05-08 02:40 | 26.51197 | 74.41320 | 36855 ft | 537 kts | 73° |
| 2026-05-08 02:41 | 26.52715 | 74.49492 | 36853 ft | 538 kts | 73° |
| 2026-05-08 02:41 | 26.54229 | 74.57671 | 36854 ft | 538 kts | 73° |
| 2026-05-08 02:42 | 26.55740 | 74.65858 | 36859 ft | 538 kts | 73° |
| 2026-05-08 02:42 | 26.57240 | 74.73984 | 36859 ft | 537 kts | 72° |
| 2026-05-08 02:43 | 26.59627 | 74.81765 | 36869 ft | 525 kts | 59° |
| 2026-05-08 02:43 | 26.63164 | 74.88792 | 36851 ft | 515 kts | 53° |
| 2026-05-08 02:44 | 26.64682 | 74.92461 | 36849 ft | 528 kts | 67° |
| 2026-05-08 02:44 | 26.65471 | 74.96501 | 36865 ft | 536 kts | 78° |
| 2026-05-08 02:44 | 26.66583 | 75.04593 | 36864 ft | 536 kts | 74° |
| 2026-05-08 02:45 | 26.68142 | 75.12755 | 36874 ft | 538 kts | 72° |
| 2026-05-08 02:45 | 26.69745 | 75.20942 | 36872 ft | 540 kts | 72° |
| 2026-05-08 02:46 | 26.71431 | 75.29127 | 36875 ft | 540 kts | 71° |
| 2026-05-08 02:46 | 26.73126 | 75.37257 | 36878 ft | 540 kts | 71° |
| 2026-05-08 02:47 | 26.74811 | 75.45443 | 36893 ft | 540 kts | 72° |
| 2026-05-08 02:47 | 26.76481 | 75.53622 | 36897 ft | 539 kts | 72° |
| 2026-05-08 02:48 | 26.78142 | 75.61787 | 36900 ft | 538 kts | 72° |
| 2026-05-08 02:48 | 26.79786 | 75.69882 | 36911 ft | 537 kts | 72° |
| 2026-05-08 02:49 | 26.81435 | 75.78023 | 36912 ft | 536 kts | 72° |
| 2026-05-08 02:49 | 26.82580 | 75.86313 | 36912 ft | 543 kts | 82° |
| 2026-05-08 02:50 | 26.82566 | 75.94789 | 36899 ft | 545 kts | 88° |
| 2026-05-08 02:50 | 26.82356 | 76.03137 | 36898 ft | 546 kts | 88° |
| 2026-05-08 02:51 | 26.82192 | 76.11627 | 36897 ft | 546 kts | 87° |
| 2026-05-08 02:51 | 26.82064 | 76.20130 | 36898 ft | 546 kts | 87° |
| 2026-05-08 02:52 | 26.81935 | 76.28636 | 36899 ft | 547 kts | 87° |
| 2026-05-08 02:52 | 26.81795 | 76.37140 | 36894 ft | 547 kts | 87° |
| 2026-05-08 02:53 | 26.81650 | 76.45596 | 36867 ft | 547 kts | 88° |
| 2026-05-08 02:53 | 26.81548 | 76.54097 | 36902 ft | 546 kts | 86° |
| 2026-05-08 02:54 | 26.81558 | 76.62607 | 36887 ft | 546 kts | 86° |
| 2026-05-08 02:54 | 26.81570 | 76.71116 | 36887 ft | 547 kts | 86° |
| 2026-05-08 02:55 | 26.81543 | 76.83836 | 36891 ft | 547 kts | 86° |
| 2026-05-08 02:56 | 26.81513 | 76.92357 | 36898 ft | 547 kts | 86° |
| 2026-05-08 02:56 | 26.81481 | 77.00788 | 36887 ft | 547 kts | 86° |
| 2026-05-08 02:57 | 26.81444 | 77.09245 | 36883 ft | 547 kts | 86° |
| 2026-05-08 02:57 | 26.81402 | 77.17755 | 36885 ft | 547 kts | 87° |
| 2026-05-08 02:58 | 26.81319 | 77.26268 | 36897 ft | 547 kts | 87° |
| 2026-05-08 02:58 | 26.81196 | 77.34790 | 36887 ft | 548 kts | 87° |
| 2026-05-08 02:59 | 26.81069 | 77.43316 | 36879 ft | 548 kts | 87° |
| 2026-05-08 02:59 | 26.80946 | 77.51790 | 36877 ft | 548 kts | 87° |
| 2026-05-08 03:00 | 26.80821 | 77.60313 | 36902 ft | 548 kts | 88° |
| 2026-05-08 03:00 | 26.80690 | 77.68852 | 36886 ft | 549 kts | 88° |
| 2026-05-08 03:01 | 26.80553 | 77.77388 | 36884 ft | 549 kts | 88° |
| 2026-05-08 03:01 | 26.80411 | 77.85873 | 36880 ft | 549 kts | 88° |
| 2026-05-08 03:02 | 26.80263 | 77.94422 | 36875 ft | 549 kts | 88° |
| 2026-05-08 03:02 | 26.80112 | 78.02874 | 36874 ft | 549 kts | 88° |
| 2026-05-08 03:03 | 26.79954 | 78.11417 | 36874 ft | 549 kts | 88° |
| 2026-05-08 03:03 | 26.79792 | 78.19896 | 36878 ft | 549 kts | 88° |
| 2026-05-08 03:04 | 26.79625 | 78.28433 | 36879 ft | 549 kts | 88° |
| 2026-05-08 03:04 | 26.79453 | 78.36969 | 36877 ft | 549 kts | 88° |
| 2026-05-08 03:05 | 26.79274 | 78.45503 | 36880 ft | 548 kts | 88° |
| 2026-05-08 03:05 | 26.79092 | 78.53979 | 36883 ft | 548 kts | 88° |
| 2026-05-08 03:06 | 26.78904 | 78.62512 | 36883 ft | 548 kts | 88° |
| 2026-05-08 03:06 | 26.78711 | 78.71042 | 36899 ft | 549 kts | 89° |
| 2026-05-08 03:07 | 26.78514 | 78.79524 | 36887 ft | 549 kts | 89° |
| 2026-05-08 03:07 | 26.78310 | 78.88056 | 36884 ft | 548 kts | 89° |
| 2026-05-08 03:08 | 26.78102 | 78.96590 | 36881 ft | 548 kts | 89° |
| 2026-05-08 03:08 | 26.77891 | 79.05027 | 36886 ft | 548 kts | 89° |
| 2026-05-08 03:09 | 26.77704 | 79.13547 | 36890 ft | 548 kts | 88° |
| 2026-05-08 03:09 | 26.77611 | 79.22010 | 36891 ft | 547 kts | 88° |
| 2026-05-08 03:10 | 26.77527 | 79.30529 | 36893 ft | 547 kts | 88° |
| 2026-05-08 03:10 | 26.77423 | 79.39049 | 36893 ft | 548 kts | 88° |
| 2026-05-08 03:11 | 26.77304 | 79.47563 | 36903 ft | 548 kts | 89° |
| 2026-05-08 03:11 | 26.77180 | 79.56032 | 36898 ft | 548 kts | 89° |
| 2026-05-08 03:12 | 26.77051 | 79.64567 | 36903 ft | 549 kts | 89° |
| 2026-05-08 03:12 | 26.76917 | 79.73109 | 36905 ft | 549 kts | 89° |
| 2026-05-08 03:13 | 26.76779 | 79.81651 | 36908 ft | 549 kts | 89° |
| 2026-05-08 03:13 | 26.76636 | 79.90143 | 36904 ft | 550 kts | 89° |
| 2026-05-08 03:14 | 26.76487 | 79.98700 | 36903 ft | 550 kts | 89° |
| 2026-05-08 03:14 | 26.76334 | 80.07162 | 36904 ft | 550 kts | 89° |
| 2026-05-08 03:15 | 26.76179 | 80.15710 | 36909 ft | 549 kts | 89° |
| 2026-05-08 03:15 | 26.76137 | 80.24195 | 36911 ft | 549 kts | 88° |
| 2026-05-08 03:16 | 26.76149 | 80.32733 | 36913 ft | 549 kts | 88° |
| 2026-05-08 03:16 | 26.76140 | 80.41272 | 36911 ft | 549 kts | 88° |
| 2026-05-08 03:17 | 26.76110 | 80.49819 | 36915 ft | 549 kts | 88° |
| 2026-05-08 03:17 | 26.76072 | 80.58299 | 36920 ft | 549 kts | 88° |
| 2026-05-08 03:18 | 26.76031 | 80.66842 | 36929 ft | 549 kts | 89° |
| 2026-05-08 03:18 | 26.75986 | 80.75384 | 36952 ft | 550 kts | 89° |
| 2026-05-08 03:19 | 26.75935 | 80.83943 | 36945 ft | 550 kts | 89° |
| 2026-05-08 03:19 | 26.76133 | 80.92412 | 36949 ft | 547 kts | 82° |
| 2026-05-08 03:20 | 26.77058 | 81.00759 | 36926 ft | 546 kts | 80° |
| 2026-05-08 03:20 | 26.78066 | 81.09185 | 36934 ft | 546 kts | 80° |
| 2026-05-08 03:21 | 26.79030 | 81.17618 | 36928 ft | 546 kts | 81° |
| 2026-05-08 03:21 | 26.79948 | 81.26000 | 36925 ft | 547 kts | 81° |
| 2026-05-08 03:22 | 26.80862 | 81.34452 | 36917 ft | 547 kts | 81° |
| 2026-05-08 03:22 | 26.81773 | 81.42914 | 36924 ft | 548 kts | 81° |
| 2026-05-08 03:23 | 26.82683 | 81.51381 | 36936 ft | 548 kts | 81° |
| 2026-05-08 03:23 | 26.83583 | 81.59798 | 36921 ft | 548 kts | 81° |
| 2026-05-08 03:24 | 26.84485 | 81.68276 | 36942 ft | 549 kts | 82° |
| 2026-05-08 03:24 | 26.85383 | 81.76766 | 36916 ft | 549 kts | 82° |
| 2026-05-08 03:25 | 26.86274 | 81.85254 | 36926 ft | 549 kts | 82° |
| 2026-05-08 03:25 | 26.87156 | 81.93694 | 36931 ft | 549 kts | 82° |
| 2026-05-08 03:26 | 26.88029 | 82.02099 | 36930 ft | 549 kts | 82° |
| 2026-05-08 03:26 | 26.88906 | 82.10595 | 36939 ft | 549 kts | 82° |
| 2026-05-08 03:27 | 26.89777 | 82.19084 | 36942 ft | 549 kts | 82° |
| 2026-05-08 03:27 | 26.90638 | 82.27522 | 36933 ft | 549 kts | 82° |
| 2026-05-08 03:28 | 26.91499 | 82.36017 | 36936 ft | 549 kts | 82° |
| 2026-05-08 03:28 | 26.92357 | 82.44523 | 36936 ft | 551 kts | 82° |
| 2026-05-08 03:29 | 26.93210 | 82.53047 | 36912 ft | 544 kts | 82° |
| 2026-05-08 03:29 | 26.94035 | 82.61342 | 36923 ft | 542 kts | 82° |
| 2026-05-08 03:30 | 26.95298 | 82.74104 | 36932 ft | 553 kts | 82° |
| 2026-05-08 03:31 | 26.96970 | 82.91224 | 36921 ft | 551 kts | 83° |
| 2026-05-08 03:32 | 26.97670 | 82.98451 | 36924 ft | 549 kts | 83° |
| 2026-05-08 03:34 | 27.01433 | 83.35636 | 36932 ft | 547 kts | 83° |
| 2026-05-08 03:35 | 27.02279 | 83.44141 | 36963 ft | 551 kts | 83° |
| 2026-05-08 03:35 | 27.03120 | 83.52626 | 36936 ft | 551 kts | 83° |
| 2026-05-08 03:36 | 27.03963 | 83.61172 | 36924 ft | 551 kts | 84° |
| 2026-05-08 03:36 | 27.04785 | 83.69581 | 36914 ft | 537 kts | 84° |
| 2026-05-08 03:37 | 27.05602 | 83.77982 | 36951 ft | 546 kts | 84° |
| 2026-05-08 03:37 | 27.06419 | 83.86440 | 36940 ft | 550 kts | 84° |
| 2026-05-08 03:38 | 27.07239 | 83.94978 | 36937 ft | 550 kts | 84° |
| 2026-05-08 03:38 | 27.08045 | 84.03420 | 36941 ft | 550 kts | 84° |
| 2026-05-08 03:39 | 27.08853 | 84.11945 | 36958 ft | 549 kts | 84° |
| 2026-05-08 03:39 | 27.09649 | 84.20399 | 36954 ft | 548 kts | 84° |
| 2026-05-08 03:40 | 27.10444 | 84.28897 | 36968 ft | 547 kts | 84° |
| 2026-05-08 03:40 | 27.11233 | 84.37383 | 36974 ft | 546 kts | 85° |
| 2026-05-08 03:41 | 27.12016 | 84.45864 | 36977 ft | 547 kts | 85° |
| 2026-05-08 03:41 | 27.12791 | 84.54309 | 36997 ft | 548 kts | 85° |
| 2026-05-08 03:42 | 27.13568 | 84.62832 | 36996 ft | 549 kts | 85° |
| 2026-05-08 03:42 | 27.14316 | 84.71373 | 37009 ft | 550 kts | 86° |
| 2026-05-08 03:43 | 27.14975 | 84.79926 | 37013 ft | 550 kts | 86° |
| 2026-05-08 03:43 | 27.15627 | 84.88314 | 37006 ft | 531 kts | 86° |
| 2026-05-08 03:44 | 27.17284 | 84.96349 | 37030 ft | 537 kts | 60° |
| 2026-05-08 03:44 | 27.19360 | 84.99825 | 37050 ft | 538 kts | 46° |
| 2026-05-08 03:44 | 27.22044 | 85.02594 | 37037 ft | 532 kts | 29° |
| 2026-05-08 03:45 | 27.28269 | 85.06896 | 37064 ft | 530 kts | 26° |
| 2026-05-08 03:45 | 27.34586 | 85.11241 | 37069 ft | 539 kts | 27° |
| 2026-05-08 03:46 | 27.40877 | 85.15738 | 37146 ft | 535 kts | 28° |
| 2026-05-08 03:46 | 27.47148 | 85.20275 | 37113 ft | 535 kts | 28° |
| 2026-05-08 03:47 | 27.52664 | 85.24073 | 37101 ft | 531 kts | 30° |
| 2026-05-08 03:47 | 27.58726 | 85.28648 | 37151 ft | 530 kts | 29° |
| 2026-05-08 03:47 | 27.61643 | 85.31223 | 37146 ft | 540 kts | 44° |
| 2026-05-08 03:48 | 27.63921 | 85.34631 | 37197 ft | 549 kts | 61° |
| 2026-05-08 03:48 | 27.65316 | 85.38641 | 37190 ft | 552 kts | 78° |
| 2026-05-08 03:48 | 27.65819 | 85.42917 | 37177 ft | 549 kts | 93° |
| 2026-05-08 03:48 | 27.65365 | 85.47144 | 37186 ft | 539 kts | 107° |
| 2026-05-08 03:49 | 27.64506 | 85.51260 | 37198 ft | 540 kts | 108° |
| 2026-05-08 03:49 | 27.62769 | 85.59468 | 37183 ft | 543 kts | 107° |
| 2026-05-08 03:50 | 27.61115 | 85.67782 | 37176 ft | 543 kts | 107° |
| 2026-05-08 03:50 | 27.59532 | 85.76070 | 37182 ft | 537 kts | 106° |
| 2026-05-08 03:51 | 27.57965 | 85.84282 | 37186 ft | 536 kts | 107° |
| 2026-05-08 03:51 | 27.56379 | 85.92501 | 37202 ft | 537 kts | 107° |
| 2026-05-08 03:52 | 27.54816 | 86.00589 | 37173 ft | 537 kts | 107° |
| 2026-05-08 03:52 | 27.53213 | 86.08804 | 37156 ft | 538 kts | 107° |
| 2026-05-08 03:53 | 27.51603 | 86.17056 | 37151 ft | 539 kts | 107° |
| 2026-05-08 03:53 | 27.49997 | 86.25287 | 37148 ft | 532 kts | 107° |
| 2026-05-08 03:54 | 27.48427 | 86.33360 | 37197 ft | 535 kts | 107° |
| 2026-05-08 03:54 | 27.46837 | 86.41618 | 37214 ft | 542 kts | 107° |
| 2026-05-08 03:55 | 27.45239 | 86.49923 | 37244 ft | 545 kts | 107° |
| 2026-05-08 03:55 | 27.43641 | 86.58256 | 37217 ft | 541 kts | 107° |
| 2026-05-08 03:55 | 27.42844 | 86.62352 | 37108 ft | 532 kts | 107° |
| 2026-05-08 03:56 | 27.42056 | 86.66371 | 37172 ft | 535 kts | 107° |
| 2026-05-08 03:56 | 27.40438 | 86.74616 | 37216 ft | 545 kts | 107° |
| 2026-05-08 03:57 | 27.38810 | 86.82962 | 37202 ft | 539 kts | 107° |
| 2026-05-08 03:57 | 27.37211 | 86.91136 | 37220 ft | 537 kts | 108° |
| 2026-05-08 03:58 | 27.35583 | 86.99373 | 37192 ft | 547 kts | 108° |
| 2026-05-08 03:58 | 27.34104 | 87.07685 | 37189 ft | 546 kts | 97° |
| 2026-05-08 03:58 | 27.34315 | 87.11922 | 37189 ft | 544 kts | 79° |
| 2026-05-08 03:59 | 27.35487 | 87.15964 | 37196 ft | 542 kts | 63° |
| 2026-05-08 03:59 | 27.37481 | 87.19550 | 37213 ft | 543 kts | 48° |
| 2026-05-08 03:59 | 27.40071 | 87.22642 | 37204 ft | 545 kts | 37° |
| 2026-05-08 03:59 | 27.43144 | 87.25104 | 37196 ft | 540 kts | 20° |
| 2026-05-08 04:00 | 27.46526 | 87.26754 | 37285 ft | 537 kts | 15° |
| 2026-05-08 04:00 | 27.53443 | 87.29690 | 37127 ft | 523 kts | 14° |
| 2026-05-08 04:00 | 27.56837 | 87.31141 | 37277 ft | 522 kts | 15° |
| 2026-05-08 04:01 | 27.60247 | 87.32647 | 37278 ft | 530 kts | 16° |
| 2026-05-08 04:01 | 27.67150 | 87.35822 | 37261 ft | 541 kts | 16° |
| 2026-05-08 04:02 | 27.74082 | 87.39041 | 37276 ft | 544 kts | 16° |
| 2026-05-08 04:02 | 27.80929 | 87.42579 | 37246 ft | 538 kts | 27° |
| 2026-05-08 04:03 | 27.86991 | 87.47562 | 37294 ft | 544 kts | 39° |
| 2026-05-08 04:03 | 27.94834 | 87.56832 | 37250 ft | 541 kts | 45° |
| 2026-05-08 04:04 | 27.99968 | 87.63050 | 37262 ft | 546 kts | 44° |
| 2026-05-08 04:04 | 28.05223 | 87.69335 | 37259 ft | 553 kts | 44° |
| 2026-05-08 04:05 | 28.10495 | 87.75609 | 37228 ft | 545 kts | 44° |
| 2026-05-08 04:05 | 28.15714 | 87.81828 | 37221 ft | 544 kts | 45° |
| 2026-05-08 04:06 | 28.20896 | 87.88007 | 37178 ft | 545 kts | 44° |
| 2026-05-08 04:06 | 28.26112 | 87.94245 | 37164 ft | 542 kts | 44° |
| 2026-05-08 04:07 | 28.31233 | 88.00377 | 37185 ft | 542 kts | 44° |
| 2026-05-08 04:07 | 28.36448 | 88.06619 | 37155 ft | 547 kts | 44° |
| 2026-05-08 04:08 | 28.41662 | 88.12892 | 37153 ft | 551 kts | 45° |
| 2026-05-08 04:08 | 28.46936 | 88.19243 | 37150 ft | 553 kts | 45° |
| 2026-05-08 04:09 | 28.52217 | 88.25599 | 37145 ft | 552 kts | 44° |
| 2026-05-08 04:09 | 28.57482 | 88.31947 | 37149 ft | 551 kts | 45° |
| 2026-05-08 04:10 | 28.62709 | 88.38264 | 37147 ft | 552 kts | 45° |
| 2026-05-08 04:10 | 28.67963 | 88.44615 | 37166 ft | 548 kts | 45° |
| 2026-05-08 04:11 | 28.73152 | 88.50898 | 37096 ft | 542 kts | 45° |
| 2026-05-08 04:11 | 28.78294 | 88.57145 | 37077 ft | 539 kts | 45° |
| 2026-05-08 04:12 | 28.83431 | 88.63387 | 37117 ft | 548 kts | 45° |
| 2026-05-08 04:12 | 28.88664 | 88.69752 | 37121 ft | 552 kts | 44° |
| 2026-05-08 04:13 | 28.91299 | 88.72950 | 37012 ft | 552 kts | 45° |
| 2026-05-08 04:13 | 28.93905 | 88.76134 | 37051 ft | 546 kts | 45° |
| 2026-05-08 04:13 | 28.99051 | 88.82431 | 37043 ft | 538 kts | 45° |
| 2026-05-08 04:14 | 29.04131 | 88.88646 | 37047 ft | 537 kts | 45° |
| 2026-05-08 04:14 | 29.09227 | 88.94882 | 37038 ft | 542 kts | 45° |
| 2026-05-08 04:15 | 29.14312 | 89.01121 | 37031 ft | 542 kts | 45° |
| 2026-05-08 04:15 | 29.19454 | 89.07437 | 37021 ft | 542 kts | 45° |
| 2026-05-08 04:16 | 29.24590 | 89.13750 | 37019 ft | 540 kts | 45° |
| 2026-05-08 04:16 | 29.29600 | 89.19926 | 37030 ft | 531 kts | 45° |
| 2026-05-08 04:17 | 29.33980 | 89.26791 | 37028 ft | 543 kts | 68° |
| 2026-05-08 04:17 | 29.35156 | 89.30912 | 37029 ft | 546 kts | 81° |
| 2026-05-08 04:17 | 29.35532 | 89.35211 | 37012 ft | 539 kts | 95° |
| 2026-05-08 04:18 | 29.35374 | 89.39459 | 37030 ft | 528 kts | 97° |
| 2026-05-08 04:18 | 29.35168 | 89.43657 | 37027 ft | 529 kts | 97° |
| 2026-05-08 04:18 | 29.34785 | 89.52077 | 37037 ft | 537 kts | 96° |
| 2026-05-08 04:19 | 29.34498 | 89.60663 | 37041 ft | 540 kts | 96° |
| 2026-05-08 04:19 | 29.34252 | 89.69267 | 37040 ft | 540 kts | 95° |
| 2026-05-08 04:20 | 29.33999 | 89.77872 | 37059 ft | 540 kts | 96° |
| 2026-05-08 04:20 | 29.33731 | 89.86420 | 37034 ft | 539 kts | 96° |
| 2026-05-08 04:21 | 29.33459 | 89.94997 | 37044 ft | 538 kts | 96° |
| 2026-05-08 04:21 | 29.33184 | 90.03465 | 37017 ft | 537 kts | 96° |
| 2026-05-08 04:22 | 29.32905 | 90.12004 | 37046 ft | 536 kts | 96° |
| 2026-05-08 04:22 | 29.32621 | 90.20497 | 37048 ft | 538 kts | 96° |
| 2026-05-08 04:23 | 29.32312 | 90.29116 | 37036 ft | 544 kts | 96° |
| 2026-05-08 04:23 | 29.32001 | 90.37753 | 37026 ft | 541 kts | 96° |
| 2026-05-08 04:24 | 29.31695 | 90.46298 | 37003 ft | 539 kts | 96° |
| 2026-05-08 04:24 | 29.31384 | 90.54857 | 37010 ft | 537 kts | 96° |
| 2026-05-08 04:25 | 29.31069 | 90.63359 | 36395 ft | 534 kts | 96° |
| 2026-05-08 04:25 | 29.30910 | 90.67602 | 35791 ft | 532 kts | 96° |
| 2026-05-08 04:25 | 29.30749 | 90.71840 | 35046 ft | 533 kts | 96° |
| 2026-05-08 04:26 | 29.30586 | 90.76095 | 34226 ft | 536 kts | 95° |
| 2026-05-08 04:26 | 29.30425 | 90.80300 | 33516 ft | 533 kts | 95° |
| 2026-05-08 04:26 | 29.30264 | 90.84513 | 32954 ft | 527 kts | 95° |
| 2026-05-08 04:26 | 29.30103 | 90.88683 | 32411 ft | 521 kts | 95° |
| 2026-05-08 04:27 | 29.29943 | 90.92803 | 31889 ft | 514 kts | 95° |
| 2026-05-08 04:27 | 29.29781 | 90.96873 | 31378 ft | 508 kts | 94° |
| 2026-05-08 04:27 | 29.29637 | 91.00813 | 30889 ft | 502 kts | 93° |
| 2026-05-08 04:27 | 29.29420 | 91.04774 | 30404 ft | 495 kts | 98° |
| 2026-05-08 04:28 | 29.28998 | 91.08658 | 29891 ft | 489 kts | 100° |
| 2026-05-08 04:28 | 29.28502 | 91.12489 | 29329 ft | 483 kts | 100° |
| 2026-05-08 04:28 | 29.27996 | 91.16215 | 28814 ft | 477 kts | 101° |
| 2026-05-08 04:28 | 29.27480 | 91.19938 | 28368 ft | 470 kts | 101° |
| 2026-05-08 04:29 | 29.26964 | 91.23610 | 27903 ft | 462 kts | 101° |
| 2026-05-08 04:29 | 29.26463 | 91.27147 | 27270 ft | 443 kts | 101° |
| 2026-05-08 04:29 | 29.25964 | 91.30650 | 26310 ft | 452 kts | 101° |
| 2026-05-08 04:29 | 29.25446 | 91.34220 | 25393 ft | 453 kts | 101° |
| 2026-05-08 04:30 | 29.24929 | 91.37762 | 24486 ft | 448 kts | 101° |
| 2026-05-08 04:30 | 29.24415 | 91.41261 | 23604 ft | 443 kts | 101° |
| 2026-05-08 04:30 | 29.24079 | 91.43531 | 22904 ft | 432 kts | 101° |
| 2026-05-08 04:30 | 29.23831 | 91.47982 | 21524 ft | 416 kts | 87° |
| 2026-05-08 04:31 | 29.24255 | 91.51189 | 20763 ft | 399 kts | 76° |
| 2026-05-08 04:31 | 29.25176 | 91.54075 | 20332 ft | 375 kts | 63° |
| 2026-05-08 04:31 | 29.26602 | 91.56460 | 19891 ft | 354 kts | 45° |
| 2026-05-08 04:31 | 29.28494 | 91.58109 | 19453 ft | 334 kts | 24° |
| 2026-05-08 04:32 | 29.29913 | 91.58668 | 19168 ft | 320 kts | 8° |
| 2026-05-08 04:32 | 29.32040 | 91.58636 | 18865 ft | 294 kts | 342° |
| 2026-05-08 04:32 | 29.33788 | 91.57633 | 18819 ft | 272 kts | 315° |
| 2026-05-08 04:32 | 29.34884 | 91.55913 | 18829 ft | 271 kts | 289° |
| 2026-05-08 04:33 | 29.35171 | 91.53808 | 18834 ft | 267 kts | 262° |
| 2026-05-08 04:33 | 29.34345 | 91.51188 | 18825 ft | 265 kts | 245° |
| 2026-05-08 04:33 | 29.33582 | 91.49282 | 18780 ft | 260 kts | 238° |
| 2026-05-08 04:33 | 29.32800 | 91.48227 | 18788 ft | 257 kts | 221° |
| 2026-05-08 04:34 | 29.31414 | 91.46975 | 18830 ft | 259 kts | 219° |
| 2026-05-08 04:34 | 29.30044 | 91.45619 | 18793 ft | 261 kts | 232° |
| 2026-05-08 04:34 | 29.29279 | 91.43753 | 18813 ft | 262 kts | 261° |
| 2026-05-08 04:34 | 29.29269 | 91.41660 | 18817 ft | 265 kts | 275° |
| 2026-05-08 04:35 | 29.29499 | 91.39547 | 18806 ft | 269 kts | 277° |
| 2026-05-08 04:35 | 29.29970 | 91.36752 | 18785 ft | 270 kts | 285° |
| 2026-05-08 04:35 | 29.30292 | 91.35361 | 18770 ft | 265 kts | 278° |
| 2026-05-08 04:35 | 29.30450 | 91.33301 | 18780 ft | 253 kts | 270° |
| 2026-05-08 04:36 | 29.30444 | 91.31347 | 18761 ft | 237 kts | 268° |
| 2026-05-08 04:36 | 29.30410 | 91.29552 | 18729 ft | 224 kts | 268° |
| 2026-05-08 04:36 | 29.30375 | 91.27734 | 18565 ft | 232 kts | 268° |
| 2026-05-08 04:36 | 29.30343 | 91.25856 | 18128 ft | 239 kts | 268° |
| 2026-05-08 04:37 | 29.30312 | 91.23945 | 17587 ft | 240 kts | 269° |
| 2026-05-08 04:37 | 29.30286 | 91.22048 | 17060 ft | 237 kts | 268° |
| 2026-05-08 04:37 | 29.30255 | 91.20169 | 16539 ft | 235 kts | 268° |
| 2026-05-08 04:37 | 29.30213 | 91.17701 | 15891 ft | 231 kts | 268° |
| 2026-05-08 04:38 | 29.30195 | 91.16480 | 15649 ft | 224 kts | 269° |
| 2026-05-08 04:38 | 29.30170 | 91.14737 | 15183 ft | 219 kts | 269° |
| 2026-05-08 04:38 | 29.30146 | 91.13016 | 14778 ft | 212 kts | 268° |
| 2026-05-08 04:38 | 29.30119 | 91.11372 | 14532 ft | 204 kts | 268° |
| 2026-05-08 04:39 | 29.30095 | 91.09740 | 14295 ft | 203 kts | 269° |
| 2026-05-08 04:39 | 29.30071 | 91.08175 | 14025 ft | 188 kts | 269° |
| 2026-05-08 04:39 | 29.30050 | 91.06697 | 13811 ft | 183 kts | 268° |
| 2026-05-08 04:39 | 29.30029 | 91.05249 | 13643 ft | 180 kts | 269° |
| 2026-05-08 04:40 | 29.30010 | 91.03799 | 13476 ft | 183 kts | 269° |
| 2026-05-08 04:40 | 29.29990 | 91.02344 | 13298 ft | 188 kts | 269° |
| 2026-05-08 04:40 | 29.29959 | 91.00866 | 13103 ft | 184 kts | 269° |
| 2026-05-08 04:40 | 29.29938 | 90.99396 | 12817 ft | 184 kts | 270° |
| 2026-05-08 04:41 | 29.29915 | 90.97936 | 12501 ft | 182 kts | 269° |
| 2026-05-08 04:41 | 29.29890 | 90.96490 | 12212 ft | 182 kts | 269° |
| 2026-05-08 04:41 | 29.29868 | 90.95047 | 11899 ft | 182 kts | 268° |
| 2026-05-08 04:41 | 29.29843 | 90.93603 | 11659 ft | 181 kts | 268° |
| 2026-05-08 04:42 | 29.29815 | 90.92179 | 11495 ft | 170 kts | 267° |
| 2026-05-08 04:42 | 29.29801 | 90.91035 | 11502 ft | 117 kts | 270° |
| 2026-05-08 04:42 | 29.29782 | 90.90511 | 11509 ft | 44 kts | 254° |
| 2026-05-08 04:42 | 29.29687 | 90.90287 | 11494 ft | 0 kts | 240° |
| 2026-05-08 04:44 | 29.29663 | 90.90237 | 11492 ft | 11 kts | 244° |
| 2026-05-08 04:44 | 29.29633 | 90.90153 | 11499 ft | 11 kts | 253° |
| 2026-05-08 04:45 | 29.29623 | 90.90063 | 11500 ft | 11 kts | 268° |
| 2026-05-08 04:45 | 29.29621 | 90.89972 | 11498 ft | 11 kts | 268° |
| 2026-05-08 04:45 | 29.29617 | 90.89846 | 11514 ft | 18 kts | 268° |
| 2026-05-08 04:45 | 29.29615 | 90.89700 | 11514 ft | 18 kts | 270° |
| 2026-05-08 04:46 | 29.29586 | 90.89609 | 11500 ft | 10 kts | 198° |
| 2026-05-08 04:46 | 29.29528 | 90.89649 | 11498 ft | 10 kts | 114° |
| 2026-05-08 04:46 | 29.29523 | 90.89732 | 11499 ft | 11 kts | 91° |
| 2026-05-08 04:46 | 29.29525 | 90.89815 | 11507 ft | 10 kts | 88° |
| 2026-05-08 04:47 | 29.29526 | 90.89898 | 11511 ft | 10 kts | 93° |
| 2026-05-08 04:47 | 29.29507 | 90.89975 | 11492 ft | 9 kts | 144° |
| 2026-05-08 04:47 | 29.29459 | 90.89983 | 11496 ft | 1 kts | 180° |
| 2026-05-08 04:47 | 29.29451 | 90.89983 | 11495 ft | 1 kts | 177° |
| 2026-05-08 04:48 | 29.29444 | 90.89983 | 11495 ft | 1 kts | 179° |
| 2026-05-08 04:48 | 29.29436 | 90.89983 | 11500 ft | 1 kts | 180° |
| 2026-05-08 04:48 | 29.29430 | 90.89983 | 11498 ft | 0 kts | 181° |